createdAt,value
2023-05-10T00:02:19.952Z,98.56
2023-05-10T00:04:47.843Z,98.75
2023-05-10T00:07:18.107Z,98.05
2023-05-10T00:09:46.632Z,97.94
2023-05-10T00:12:14.604Z,98.18
2023-05-10T00:14:42.598Z,97.24
2023-05-10T00:17:11.978Z,98.08
2023-05-10T00:19:39.920Z,97.88
2023-05-10T00:22:07.823Z,97.72
2023-05-10T00:24:35.897Z,97.52
2023-05-10T00:27:05.013Z,98.03
2023-05-10T00:29:34.781Z,99.12
2023-05-10T00:32:02.791Z,99.23
2023-05-10T00:34:32.123Z,98.55
2023-05-10T00:37:00.114Z,98.53
2023-05-10T00:39:29.638Z,98.35
2023-05-10T00:41:57.585Z,98.50
2023-05-10T00:44:25.940Z,98.22
2023-05-10T00:46:54.826Z,98.70
2023-05-10T00:49:23.158Z,98.70
2023-05-10T00:51:52.961Z,98.30
2023-05-10T00:54:22.301Z,98.51
2023-05-10T00:56:50.555Z,98.63
2023-05-10T00:59:18.829Z,98.61
2023-05-10T01:01:47.466Z,98.68
2023-05-10T01:04:16.738Z,98.31
2023-05-10T01:06:45.422Z,99.04
2023-05-10T01:09:14.760Z,99.22
2023-05-10T01:11:42.803Z,99.03
2023-05-10T01:14:11.530Z,99.01
2023-05-10T01:16:41.139Z,98.33
2023-05-10T01:19:19.166Z,97.42
2023-05-10T01:21:55.221Z,97.41
2023-05-10T01:25:05.877Z,97.22
2023-05-10T01:28:04.836Z,97.50
2023-05-10T01:31:09.102Z,96.00
2023-05-10T01:33:45.151Z,98.38
2023-05-10T01:36:27.015Z,99.09
2023-05-10T01:39:01.093Z,98.98
2023-05-10T01:41:38.173Z,98.33
2023-05-10T01:44:13.857Z,98.28
2023-05-10T01:46:42.690Z,98.07
2023-05-10T01:49:19.853Z,97.92
2023-05-10T01:51:54.751Z,98.02
2023-05-10T01:54:24.659Z,97.94
2023-05-10T01:56:58.282Z,98.04
2023-05-10T01:59:31.786Z,98.62
2023-05-10T02:02:01.917Z,98.51
2023-05-10T02:04:31.895Z,97.61
2023-05-10T02:07:00.017Z,98.12
2023-05-10T02:09:30.127Z,97.57
2023-05-10T02:12:02.017Z,98.47
2023-05-10T02:14:32.591Z,100.00
2023-05-10T02:17:02.473Z,100.00
2023-05-10T02:19:34.374Z,100.00
2023-05-10T02:22:04.035Z,100.00
2023-05-10T02:24:35.720Z,100.00
2023-05-10T02:27:05.520Z,100.00
2023-05-10T02:29:34.548Z,99.93
2023-05-10T02:32:03.786Z,100.00
2023-05-10T02:34:34.456Z,99.25
2023-05-10T02:37:04.368Z,98.17
2023-05-10T02:39:35.147Z,97.31
2023-05-10T02:42:04.449Z,96.40
2023-05-10T02:44:33.501Z,95.89
2023-05-10T02:47:01.480Z,95.20
2023-05-10T02:49:31.105Z,95.74
2023-05-10T02:52:03.648Z,96.13
2023-05-10T02:54:35.260Z,96.74
2023-05-10T02:57:06.578Z,97.11
2023-05-10T02:59:34.698Z,97.44
2023-05-10T03:02:03.388Z,97.51
2023-05-10T03:04:31.320Z,97.79
2023-05-10T03:07:01.466Z,98.10
2023-05-10T03:09:29.598Z,98.66
2023-05-10T03:12:04.985Z,98.98
2023-05-10T03:14:47.518Z,98.93
2023-05-10T03:17:21.733Z,99.37
2023-05-10T03:19:56.385Z,99.79
2023-05-10T03:22:31.410Z,100.00
2023-05-10T03:25:04.562Z,100.00
2023-05-10T03:27:33.265Z,100.00
2023-05-10T03:30:03.638Z,100.00
2023-05-10T03:32:35.871Z,100.00
2023-05-10T03:35:09.085Z,100.00
2023-05-10T03:37:38.909Z,100.00
2023-05-10T03:40:08.754Z,100.00
2023-05-10T03:42:39.008Z,100.00
2023-05-10T03:45:08.669Z,100.00
2023-05-10T03:47:36.806Z,100.00
2023-05-10T03:50:06.030Z,100.00
2023-05-10T03:52:35.277Z,100.00
2023-05-10T03:55:05.019Z,100.00
2023-05-10T03:57:33.201Z,100.00
2023-05-10T04:00:01.881Z,100.00
2023-05-10T04:02:31.073Z,100.00
2023-05-10T04:04:59.161Z,100.00
2023-05-10T04:07:27.107Z,100.00
2023-05-10T04:09:55.042Z,100.00
2023-05-10T04:12:25.486Z,100.00
2023-05-10T04:14:53.431Z,100.00
2023-05-10T04:17:21.431Z,100.00
2023-05-10T04:19:49.314Z,100.00
2023-05-10T04:22:17.240Z,100.00
2023-05-10T04:24:45.172Z,100.00
2023-05-10T04:27:13.493Z,99.96
2023-05-10T04:29:42.812Z,100.00
2023-05-10T04:32:11.365Z,100.00
2023-05-10T04:34:39.366Z,99.69
2023-05-10T04:37:08.485Z,99.74
2023-05-10T04:39:36.808Z,99.95
2023-05-10T04:42:06.730Z,100.00
2023-05-10T04:44:34.701Z,100.00
2023-05-10T04:47:04.298Z,100.00
2023-05-10T04:49:32.398Z,100.00
2023-05-10T04:52:00.697Z,100.00
2023-05-10T04:54:28.791Z,100.00
2023-05-10T04:56:56.655Z,99.82
2023-05-10T04:59:24.579Z,99.67
2023-05-10T05:01:52.539Z,99.34
2023-05-10T05:04:21.849Z,98.98
2023-05-10T05:06:51.642Z,100.00
2023-05-10T05:09:20.975Z,99.69
2023-05-10T05:11:48.923Z,99.02
2023-05-10T05:14:16.911Z,99.13
2023-05-10T05:16:44.882Z,99.19
2023-05-10T05:19:12.879Z,96.85
2023-05-10T05:21:42.188Z,96.26
2023-05-10T05:24:11.263Z,94.22
2023-05-10T05:26:39.224Z,93.31
2023-05-10T05:29:07.360Z,91.78
2023-05-10T05:31:35.309Z,90.75
2023-05-10T05:34:03.248Z,91.20
2023-05-10T05:36:31.864Z,91.74
2023-05-10T05:39:01.181Z,89.79
2023-05-10T05:41:29.118Z,91.15
2023-05-10T05:43:57.021Z,92.09
2023-05-10T05:46:25.012Z,90.54
2023-05-10T05:48:53.078Z,89.58
2023-05-10T05:51:21.168Z,89.00
2023-05-10T05:53:49.126Z,87.90
2023-05-10T05:56:25.007Z,87.70
2023-05-10T05:58:53.192Z,88.72
2023-05-10T06:01:21.568Z,89.08
2023-05-10T06:03:50.985Z,88.43
2023-05-10T06:06:20.566Z,88.50
2023-05-10T06:08:48.486Z,88.13
2023-05-10T06:11:16.501Z,89.21
2023-05-10T06:13:45.887Z,89.73
2023-05-10T06:16:14.257Z,89.56
2023-05-10T06:18:42.184Z,89.71
2023-05-10T06:21:10.326Z,90.54
2023-05-10T06:23:38.294Z,91.58
2023-05-10T06:26:06.376Z,91.74
2023-05-10T06:28:34.656Z,92.44
2023-05-10T06:31:04.002Z,91.81
2023-05-10T06:33:32.149Z,92.89
2023-05-10T06:36:00.152Z,92.15
2023-05-10T06:38:28.364Z,91.59
2023-05-10T06:40:56.356Z,91.69
2023-05-10T06:43:25.382Z,90.60
2023-05-10T06:45:53.362Z,90.66
2023-05-10T06:48:22.955Z,90.99
2023-05-10T06:50:51.191Z,89.91
2023-05-10T06:53:19.106Z,89.08
2023-05-10T06:55:47.489Z,89.85
2023-05-10T06:58:15.416Z,89.24
2023-05-10T07:00:44.837Z,89.42
2023-05-10T07:03:12.961Z,89.62
2023-05-10T07:05:42.423Z,90.95
2023-05-10T07:08:10.368Z,90.97
2023-05-10T07:10:38.292Z,89.54
2023-05-10T07:13:06.337Z,88.41
2023-05-10T07:15:34.589Z,88.30
2023-05-10T07:18:02.714Z,88.52
2023-05-10T07:20:30.864Z,87.53
2023-05-10T07:23:00.237Z,87.59
2023-05-10T07:25:28.228Z,83.44
2023-05-10T07:27:56.103Z,81.50
2023-05-10T07:30:24.241Z,81.94
2023-05-10T07:32:52.327Z,81.84
2023-05-10T07:35:20.330Z,81.09
2023-05-10T07:37:48.255Z,83.17
2023-05-10T07:40:17.532Z,83.68
2023-05-10T07:42:45.641Z,83.57
2023-05-10T07:45:13.628Z,84.38
2023-05-10T07:47:41.727Z,85.65
2023-05-10T07:50:10.448Z,85.91
2023-05-10T07:52:38.491Z,85.54
2023-05-10T07:55:08.290Z,86.41
2023-05-10T07:57:37.738Z,85.66
2023-05-10T08:00:06.477Z,85.31
2023-05-10T08:02:41.412Z,85.80
2023-05-10T08:05:09.984Z,84.73
2023-05-10T08:07:37.919Z,84.58
2023-05-10T08:10:06.790Z,83.47
2023-05-10T08:12:34.679Z,84.35
2023-05-10T08:15:04.377Z,83.53
2023-05-10T08:17:32.391Z,83.83
2023-05-10T08:20:00.377Z,82.36
2023-05-10T08:22:28.444Z,82.11
2023-05-10T08:24:56.381Z,83.20
2023-05-10T08:27:24.314Z,83.17
2023-05-10T08:29:52.309Z,82.80
2023-05-10T08:32:21.684Z,83.61
2023-05-10T08:34:49.738Z,80.82
2023-05-10T08:37:17.765Z,79.33
2023-05-10T08:39:46.800Z,79.92
2023-05-10T08:42:18.396Z,80.38
2023-05-10T08:44:49.791Z,80.37
2023-05-10T08:47:20.189Z,79.10
2023-05-10T08:49:52.033Z,81.32
2023-05-10T08:52:20.875Z,80.48
2023-05-10T08:54:49.556Z,80.34
2023-05-10T08:57:17.644Z,77.37
2023-05-10T08:59:45.584Z,79.00
2023-05-10T09:02:17.398Z,79.32
2023-05-10T09:04:46.861Z,78.88
2023-05-10T09:07:16.936Z,77.59
2023-05-10T09:09:45.715Z,77.86
2023-05-10T09:12:16.622Z,75.75
2023-05-10T09:14:46.642Z,74.59
2023-05-10T09:17:14.982Z,75.75
2023-05-10T09:19:43.338Z,73.75
2023-05-10T09:22:12.334Z,74.33
2023-05-10T09:24:46.113Z,75.95
2023-05-10T09:27:14.129Z,76.27
2023-05-10T09:29:43.899Z,76.25
2023-05-10T09:32:13.890Z,75.64
2023-05-10T09:34:43.285Z,74.93
2023-05-10T09:37:11.645Z,75.37
2023-05-10T09:39:42.345Z,74.60
2023-05-10T09:42:11.563Z,76.39
2023-05-10T09:44:40.386Z,75.26
2023-05-10T09:47:08.604Z,76.65
2023-05-10T09:49:36.618Z,74.34
2023-05-10T09:52:05.907Z,73.93
2023-05-10T09:54:36.226Z,72.64
2023-05-10T09:57:06.050Z,72.38
2023-05-10T09:59:36.245Z,71.37
2023-05-10T10:02:04.903Z,71.14
2023-05-10T10:04:33.205Z,71.33
2023-05-10T10:07:02.687Z,71.17
2023-05-10T10:09:31.056Z,70.76
2023-05-10T10:12:00.057Z,70.69
2023-05-10T10:14:29.520Z,71.53
2023-05-10T10:17:07.269Z,72.73
2023-05-10T10:19:37.924Z,73.13
2023-05-10T10:22:06.466Z,72.36
2023-05-10T10:24:34.513Z,71.94
2023-05-10T10:27:21.982Z,69.19
2023-05-10T10:30:06.801Z,71.39
2023-05-10T10:32:57.538Z,74.83
2023-05-10T10:35:25.692Z,76.42
2023-05-10T10:37:53.714Z,77.12
2023-05-10T10:40:34.644Z,79.07
2023-05-10T10:43:24.292Z,77.54
2023-05-10T10:46:15.706Z,78.46
2023-05-10T10:48:49.165Z,77.78
2023-05-10T10:51:17.103Z,76.47
2023-05-10T10:53:45.735Z,76.43
2023-05-10T10:56:16.310Z,75.82
2023-05-10T10:58:52.124Z,75.74
2023-05-10T11:01:21.889Z,75.53
2023-05-10T11:04:21.789Z,75.07
2023-05-10T11:06:49.835Z,75.41
2023-05-10T11:09:18.534Z,75.00
2023-05-10T11:11:56.201Z,73.00
2023-05-10T11:14:24.864Z,74.56
2023-05-10T11:16:54.311Z,73.32
2023-05-10T11:19:22.340Z,72.80
2023-05-10T11:21:53.004Z,73.25
2023-05-10T11:24:23.120Z,73.00
2023-05-10T11:26:52.503Z,73.88
2023-05-10T11:29:20.980Z,72.05
2023-05-10T11:31:49.577Z,71.05
2023-05-10T11:34:27.472Z,67.65
2023-05-10T11:36:56.542Z,70.79
2023-05-10T11:39:28.516Z,68.85
2023-05-10T11:41:56.990Z,69.17
2023-05-10T11:44:25.962Z,68.75
2023-05-10T11:46:54.248Z,67.50
2023-05-10T11:49:25.818Z,65.66
2023-05-10T11:51:55.081Z,66.39
2023-05-10T11:54:23.005Z,65.68
2023-05-10T11:56:52.213Z,65.30
2023-05-10T11:59:20.207Z,64.98
2023-05-10T12:01:48.281Z,64.79
2023-05-10T12:04:16.400Z,65.32
2023-05-10T12:06:45.122Z,65.56
2023-05-10T12:09:14.453Z,64.32
2023-05-10T12:11:44.202Z,66.40
2023-05-10T12:14:13.037Z,67.41
2023-05-10T12:16:41.183Z,66.25
2023-05-10T12:19:09.291Z,66.45
2023-05-10T12:21:37.334Z,65.67
2023-05-10T12:24:06.406Z,66.25
2023-05-10T12:27:22.595Z,64.53
2023-05-10T12:29:25.872Z,65.84
2023-05-10T12:31:59.411Z,65.57
2023-05-10T12:34:28.344Z,66.45
2023-05-10T12:36:56.934Z,67.88
2023-05-10T12:39:25.097Z,66.19
2023-05-10T12:41:54.602Z,65.13
2023-05-10T12:44:22.505Z,65.10
2023-05-10T12:46:50.439Z,65.65
2023-05-10T12:49:19.936Z,65.52
2023-05-10T12:51:47.821Z,65.85
2023-05-10T12:54:15.658Z,65.75
2023-05-10T12:56:43.720Z,65.95
2023-05-10T12:59:12.969Z,65.17
2023-05-10T13:01:40.948Z,66.06
2023-05-10T13:04:08.979Z,66.52
2023-05-10T13:06:36.963Z,66.05
2023-05-10T13:09:05.036Z,65.55
2023-05-10T13:11:32.994Z,66.15
2023-05-10T13:14:01.205Z,65.30
2023-05-10T13:16:30.567Z,66.03
2023-05-10T13:18:58.684Z,66.19
2023-05-10T13:21:26.851Z,65.88
2023-05-10T13:23:55.056Z,65.55
2023-05-10T13:26:23.162Z,65.60
2023-05-10T13:28:52.747Z,64.84
2023-05-10T13:31:21.600Z,64.46
2023-05-10T13:33:50.975Z,64.34
2023-05-10T13:36:18.885Z,64.70
2023-05-10T13:38:46.746Z,64.93
2023-05-10T13:41:14.588Z,64.58
2023-05-10T13:43:42.502Z,65.58
2023-05-10T13:46:10.457Z,64.47
2023-05-10T13:48:39.107Z,64.83
2023-05-10T13:51:08.499Z,64.58
2023-05-10T13:53:36.362Z,64.17
2023-05-10T13:56:04.841Z,63.85
2023-05-10T13:58:32.689Z,64.08
2023-05-10T14:01:00.618Z,63.32
2023-05-10T14:03:28.596Z,63.53
2023-05-10T14:05:56.555Z,63.92
2023-05-10T14:08:27.990Z,64.08
2023-05-10T14:10:57.321Z,64.40
2023-05-10T14:13:25.896Z,64.03
2023-05-10T14:15:55.287Z,62.64
2023-05-10T14:18:23.286Z,63.15
2023-05-10T14:20:51.207Z,62.57
2023-05-10T14:23:20.611Z,62.29
2023-05-10T14:25:49.844Z,62.56
2023-05-10T14:28:18.258Z,62.62
2023-05-10T14:30:46.221Z,62.29
2023-05-10T14:33:14.261Z,63.76
2023-05-10T14:35:42.168Z,62.67
2023-05-10T14:38:10.083Z,62.71
2023-05-10T14:40:37.898Z,63.16
2023-05-10T14:43:07.116Z,63.19
2023-05-10T14:45:35.457Z,63.27
2023-05-10T14:48:05.526Z,63.48
2023-05-10T14:50:36.944Z,63.28
2023-05-10T14:53:05.704Z,64.50
2023-05-10T14:55:33.586Z,64.88
2023-05-10T14:58:01.554Z,66.36
2023-05-10T15:00:31.937Z,66.89
2023-05-10T15:03:00.543Z,66.69
2023-05-10T15:05:28.824Z,66.67
2023-05-10T15:07:57.148Z,67.89
2023-05-10T15:10:24.969Z,68.94
2023-05-10T15:12:52.864Z,69.33
2023-05-10T15:15:20.723Z,70.33
2023-05-10T15:17:50.197Z,71.22
2023-05-10T15:20:18.256Z,72.63
2023-05-10T15:22:46.147Z,74.00
2023-05-10T15:25:14.194Z,75.07
2023-05-10T15:27:44.466Z,75.64
2023-05-10T15:30:13.333Z,75.50
2023-05-10T15:32:41.479Z,74.84
2023-05-10T15:35:11.572Z,75.55
2023-05-10T15:37:39.556Z,75.96
2023-05-10T15:40:08.604Z,75.95
2023-05-10T15:42:36.515Z,75.74
2023-05-10T15:45:04.983Z,76.71
2023-05-10T15:47:33.009Z,76.97
2023-05-10T15:50:01.159Z,77.30
2023-05-10T15:52:30.512Z,78.58
2023-05-10T15:54:58.477Z,79.42
2023-05-10T15:57:26.371Z,79.84
2023-05-10T15:59:54.296Z,80.30
2023-05-10T16:02:23.418Z,80.60
2023-05-10T16:04:51.737Z,79.77
2023-05-10T16:07:19.691Z,79.92
2023-05-10T16:09:49.730Z,80.88
2023-05-10T16:12:17.738Z,79.69
2023-05-10T16:14:45.614Z,79.44
2023-05-10T16:17:15.210Z,79.76
2023-05-10T16:19:43.216Z,79.67
2023-05-10T16:22:11.208Z,79.65
2023-05-10T16:24:39.150Z,79.87
2023-05-10T16:27:08.455Z,80.57
2023-05-10T16:29:36.450Z,80.97
2023-05-10T16:32:04.514Z,80.50
2023-05-10T16:34:32.425Z,80.91
2023-05-10T16:37:00.442Z,81.51
2023-05-10T16:39:28.382Z,81.37
2023-05-10T16:41:56.278Z,81.32
2023-05-10T16:44:26.082Z,81.57
2023-05-10T16:46:54.952Z,81.78
2023-05-10T16:49:24.457Z,82.03
2023-05-10T16:51:53.976Z,81.80
2023-05-10T16:54:22.004Z,82.31
2023-05-10T16:56:50.006Z,82.73
2023-05-10T16:59:17.906Z,82.64
2023-05-10T17:01:47.322Z,82.67
2023-05-10T17:04:15.512Z,82.53
2023-05-10T17:06:43.514Z,81.24
2023-05-10T17:09:12.108Z,80.50
2023-05-10T17:11:40.079Z,81.01
2023-05-10T17:14:07.946Z,81.26
2023-05-10T17:16:35.912Z,81.57
2023-05-10T17:19:05.354Z,80.34
2023-05-10T17:21:33.471Z,78.96
2023-05-10T17:24:01.389Z,78.07
2023-05-10T17:26:30.087Z,77.83
2023-05-10T17:28:58.053Z,77.12
2023-05-10T17:31:26.029Z,75.63
2023-05-10T17:33:53.937Z,75.72
2023-05-10T17:36:23.571Z,75.27
2023-05-10T17:38:51.561Z,76.43
2023-05-10T17:41:19.595Z,76.97
2023-05-10T17:43:47.621Z,76.18
2023-05-10T17:46:15.575Z,76.04
2023-05-10T17:48:43.548Z,76.52
2023-05-10T17:51:12.688Z,77.12
2023-05-10T17:53:42.390Z,77.12
2023-05-10T17:56:10.288Z,76.99
2023-05-10T17:58:38.749Z,77.05
2023-05-10T18:01:07.173Z,77.38
2023-05-10T18:03:36.004Z,77.02
2023-05-10T18:06:04.413Z,77.88
2023-05-10T18:08:33.164Z,77.64
2023-05-10T18:11:02.486Z,77.12
2023-05-10T18:13:30.550Z,76.83
2023-05-10T18:15:58.566Z,77.50
2023-05-10T18:18:26.534Z,78.32
2023-05-10T18:20:56.738Z,78.73
2023-05-10T18:23:25.657Z,78.58
2023-05-10T18:25:53.822Z,79.54
2023-05-10T18:28:24.453Z,80.50
2023-05-10T18:30:52.533Z,80.23
2023-05-10T18:33:20.455Z,81.01
2023-05-10T18:35:48.476Z,80.99
2023-05-10T18:38:16.441Z,81.37
2023-05-10T18:40:44.325Z,81.64
2023-05-10T18:43:12.333Z,81.21
2023-05-10T18:45:41.614Z,81.02
2023-05-10T18:48:09.629Z,81.11
2023-05-10T18:50:38.006Z,81.48
2023-05-10T18:53:05.923Z,82.03
2023-05-10T18:55:33.851Z,82.17
2023-05-10T18:58:01.755Z,82.89
2023-05-10T19:00:29.731Z,82.18
2023-05-10T19:02:59.099Z,82.45
2023-05-10T19:05:30.229Z,82.21
2023-05-10T19:07:58.494Z,81.93
2023-05-10T19:10:26.428Z,82.41
2023-05-10T19:12:54.290Z,82.85
2023-05-10T19:15:22.503Z,82.81
2023-05-10T19:17:51.749Z,83.12
2023-05-10T19:20:22.070Z,83.21
2023-05-10T19:23:08.611Z,83.40
2023-05-10T19:25:37.461Z,83.23
2023-05-10T19:28:05.493Z,83.02
2023-05-10T19:30:33.668Z,83.43
2023-05-10T19:33:04.151Z,83.21
2023-05-10T19:35:33.973Z,83.06
2023-05-10T19:38:02.201Z,83.24
2023-05-10T19:40:30.177Z,83.18
2023-05-10T19:42:58.166Z,82.67
2023-05-10T19:45:26.810Z,82.21
2023-05-10T19:47:54.853Z,82.33
2023-05-10T19:50:22.887Z,82.38
2023-05-10T19:52:52.564Z,82.54
2023-05-10T19:55:28.337Z,83.06
2023-05-10T19:57:56.424Z,83.22
2023-05-10T20:00:25.471Z,83.06
2023-05-10T20:02:55.597Z,83.14
2023-05-10T20:05:23.696Z,83.98
2023-05-10T20:07:52.967Z,83.82
2023-05-10T20:10:21.648Z,84.21
2023-05-10T20:12:52.449Z,84.05
2023-05-10T20:15:22.907Z,84.09
2023-05-10T20:17:52.774Z,84.30
2023-05-10T20:20:21.578Z,84.88
2023-05-10T20:22:50.189Z,84.74
2023-05-10T20:25:20.113Z,84.68
2023-05-10T20:27:50.765Z,84.91
2023-05-10T20:30:19.092Z,85.09
2023-05-10T20:32:47.227Z,85.34
2023-05-10T20:35:15.181Z,84.68
2023-05-10T20:37:43.087Z,85.10
2023-05-10T20:40:11.750Z,85.13
2023-05-10T20:42:41.133Z,84.84
2023-05-10T20:45:10.415Z,84.97
2023-05-10T20:47:38.424Z,84.82
2023-05-10T20:50:07.487Z,84.41
2023-05-10T20:52:35.488Z,84.27
2023-05-10T20:55:03.377Z,84.08
2023-05-10T20:57:31.335Z,84.43
2023-05-10T21:00:00.664Z,84.65
2023-05-10T21:02:28.636Z,84.46
2023-05-10T21:04:57.990Z,84.39
2023-05-10T21:07:26.365Z,84.60
2023-05-10T21:09:54.272Z,84.55
2023-05-10T21:12:22.149Z,84.67
2023-05-10T21:14:50.077Z,85.05
2023-05-10T21:17:20.251Z,84.78
2023-05-10T21:19:48.325Z,85.30
2023-05-10T21:22:16.617Z,85.54
2023-05-10T21:24:44.969Z,85.73
2023-05-10T21:27:13.019Z,85.10
2023-05-10T21:29:40.941Z,85.24
2023-05-10T21:32:09.649Z,85.21
2023-05-10T21:34:39.110Z,85.43
2023-05-10T21:37:07.105Z,84.89
2023-05-10T21:39:35.043Z,84.50
2023-05-10T21:42:03.660Z,84.28
2023-05-10T21:44:32.217Z,83.90
2023-05-10T21:47:00.206Z,84.19
2023-05-10T21:49:28.198Z,84.34
2023-05-10T21:51:57.478Z,84.61
2023-05-10T21:54:25.376Z,84.40
2023-05-10T21:56:53.424Z,84.79
2023-05-10T21:59:22.085Z,85.43
2023-05-10T22:01:50.165Z,84.97
2023-05-10T22:04:18.114Z,84.67
2023-05-10T22:06:46.175Z,85.11
2023-05-10T22:09:15.607Z,85.24
2023-05-10T22:11:44.651Z,85.49
2023-05-10T22:14:12.580Z,85.87
2023-05-10T22:16:40.487Z,86.21
2023-05-10T22:19:08.616Z,86.15
2023-05-10T22:21:36.565Z,86.34
2023-05-10T22:24:04.757Z,86.38
2023-05-10T22:26:34.049Z,86.03
2023-05-10T22:29:02.017Z,85.82
2023-05-10T22:31:30.193Z,85.69
2023-05-10T22:33:58.198Z,85.41
2023-05-10T22:36:26.166Z,85.28
2023-05-10T22:38:54.077Z,85.75
2023-05-10T22:41:22.918Z,85.70
2023-05-10T22:43:52.179Z,85.80
2023-05-10T22:46:20.144Z,85.75
2023-05-10T22:48:48.163Z,85.69
2023-05-10T22:51:16.190Z,85.56
2023-05-10T22:53:44.201Z,85.95
2023-05-10T22:56:12.132Z,85.84
2023-05-10T22:58:40.096Z,86.17
2023-05-10T23:01:09.444Z,86.05
2023-05-10T23:03:37.523Z,86.34
2023-05-10T23:06:06.165Z,86.86
2023-05-10T23:08:34.094Z,87.28
2023-05-10T23:11:02.019Z,87.53
2023-05-10T23:13:29.966Z,87.87
2023-05-10T23:15:57.936Z,87.58
2023-05-10T23:18:27.318Z,87.53
2023-05-10T23:20:55.305Z,87.52
2023-05-10T23:23:23.264Z,87.94
2023-05-10T23:25:51.451Z,88.15
2023-05-10T23:28:19.565Z,88.30
2023-05-10T23:30:47.442Z,87.89
2023-05-10T23:33:15.549Z,88.01
2023-05-10T23:35:45.034Z,87.80
2023-05-10T23:38:12.926Z,87.97
2023-05-10T23:40:40.854Z,87.82
2023-05-10T23:43:08.834Z,87.99
2023-05-10T23:45:36.781Z,88.52
2023-05-10T23:48:04.923Z,88.14
2023-05-10T23:50:32.869Z,88.18
2023-05-10T23:53:02.326Z,88.13
2023-05-10T23:55:30.254Z,88.07
2023-05-10T23:57:58.358Z,87.91
